Time;durP1;ratioP1;P1;durP2;ratioP2;P2;SDS_P1;SDS_P2;PMS_P1;PMS_P2;Temp;Humidity;BMP_temperature;BMP_pressure;BME280_temperature;BME280_humidity;BME280_pressure;Samples;Min_cycle;Max_cycle;Signal;HPM_P1;HPM_P2
2023/08/23 00:00:53;;;;;;;6.45;4.38;;;18.10;99.90;;;;;;5022140;28;20923;-65
2023/08/23 00:03:20;;;;;;;13.00;5.47;;;18.00;99.90;;;;;;4990883;28;20611;-64
2023/08/23 00:05:47;;;;;;;7.13;4.82;;;18.00;99.90;;;;;;5031038;28;20247;-65
2023/08/23 00:08:14;;;;;;;5.93;4.82;;;17.90;99.90;;;;;;5020022;28;20201;-65
2023/08/23 00:10:42;;;;;;;10.82;5.32;;;18.00;99.90;;;;;;5031121;28;20750;-65
2023/08/23 00:13:09;;;;;;;8.95;5.53;;;17.70;99.90;;;;;;5011293;28;20201;-65
2023/08/23 00:15:42;;;;;;;9.73;5.32;;;17.80;99.90;;;;;;5029732;28;20765;-65
2023/08/23 00:18:09;;;;;;;10.50;5.63;;;17.80;99.90;;;;;;4983298;28;20212;-65
2023/08/23 00:20:36;;;;;;;11.77;5.43;;;17.70;99.90;;;;;;5027381;28;20201;-65
2023/08/23 00:23:02;;;;;;;8.45;4.95;;;17.70;99.90;;;;;;5016750;28;20212;-65
2023/08/23 00:25:29;;;;;;;12.60;6.13;;;17.60;99.90;;;;;;5029083;28;20205;-65
2023/08/23 00:27:58;;;;;;;6.55;5.10;;;17.60;99.90;;;;;;5026744;28;20300;-66
2023/08/23 00:30:24;;;;;;;7.32;5.45;;;17.60;99.90;;;;;;5014458;28;20209;-65
2023/08/23 00:32:51;;;;;;;9.30;5.68;;;17.60;99.90;;;;;;5019035;28;20212;-65
2023/08/23 00:35:18;;;;;;;8.60;5.65;;;17.60;99.90;;;;;;4999353;28;20212;-65
2023/08/23 00:37:45;;;;;;;7.88;4.80;;;17.60;99.90;;;;;;5014552;28;20209;-65
2023/08/23 00:40:12;;;;;;;8.10;5.38;;;17.70;99.90;;;;;;5022305;28;20194;-65
2023/08/23 00:42:39;;;;;;;8.07;5.50;;;17.70;99.90;;;;;;5024863;28;20205;-65
2023/08/23 00:45:08;;;;;;;9.45;5.40;;;15.30;99.90;;;;;;5010156;28;20208;-65
2023/08/23 00:47:35;;;;;;;10.90;6.00;;;17.50;99.90;;;;;;5028693;28;20221;-65
2023/08/23 00:50:02;;;;;;;7.93;5.40;;;17.50;99.90;;;;;;4984658;28;20221;-65
2023/08/23 00:52:30;;;;;;;14.35;5.32;;;17.50;99.90;;;;;;5026496;28;20244;-65
2023/08/23 00:54:58;;;;;;;7.60;5.88;;;17.50;99.90;;;;;;5028176;28;20207;-65
2023/08/23 00:57:26;;;;;;;6.47;4.95;;;17.60;99.90;;;;;;5023637;28;20582;-65
2023/08/23 00:59:53;;;;;;;7.93;5.65;;;17.60;99.90;;;;;;5018516;28;20203;-65
2023/08/23 01:02:21;;;;;;;6.57;5.07;;;17.50;99.90;;;;;;5009714;28;20229;-65
2023/08/23 01:04:49;;;;;;;10.73;5.53;;;17.50;99.90;;;;;;5025470;28;20236;-65
2023/08/23 01:07:19;;;;;;;8.15;5.18;;;17.60;99.90;;;;;;4990171;28;20315;-65
2023/08/23 01:09:52;;;;;;;8.05;5.38;;;17.20;99.90;;;;;;5024992;28;20206;-65
2023/08/23 01:12:26;;;;;;;6.03;4.53;;;17.50;99.90;;;;;;5018613;28;20755;-65
2023/08/23 01:14:58;;;;;;;8.48;5.18;;;17.50;99.90;;;;;;5017735;28;20212;-66
2023/08/23 01:17:28;;;;;;;6.53;4.65;;;17.50;99.90;;;;;;5012854;28;20194;-65
2023/08/23 01:19:57;;;;;;;5.28;4.00;;;17.40;99.90;;;;;;5023660;28;20212;-65
2023/08/23 01:22:25;;;;;;;5.70;5.07;;;17.10;99.90;;;;;;4986760;28;20963;-65
2023/08/23 01:24:54;;;;;;;5.70;5.20;;;17.10;99.90;;;;;;5027035;28;20208;-65
2023/08/23 01:27:21;;;;;;;9.30;5.80;;;16.70;99.90;;;;;;5021602;28;20244;-65
2023/08/23 01:29:48;;;;;;;6.63;5.50;;;16.90;99.90;;;;;;5017362;28;20205;-65
2023/08/23 01:32:37;;;;;;;5.57;5.07;;;16.80;99.90;;;;;;5011712;28;20282;-65
2023/08/23 01:35:12;;;;;;;5.65;5.13;;;16.70;99.90;;;;;;5023532;28;20298;-68
2023/08/23 01:37:40;;;;;;;5.55;5.00;;;16.50;99.90;;;;;;4988249;28;20217;-65
2023/08/23 01:40:11;;;;;;;5.30;4.82;;;16.50;99.90;;;;;;5025638;28;20716;-65
2023/08/23 01:42:38;;;;;;;5.07;4.57;;;16.30;99.90;;;;;;5023279;28;20204;-65
2023/08/23 01:45:07;;;;;;;5.00;4.50;;;16.30;99.90;;;;;;5023929;28;20197;-65
2023/08/23 01:47:34;;;;;;;10.07;4.50;;;16.20;99.90;;;;;;5004435;28;20225;-65
2023/08/23 01:50:00;;;;;;;4.93;4.43;;;16.20;99.90;;;;;;5024868;28;20202;-65
2023/08/23 01:52:27;;;;;;;5.18;4.57;;;16.30;99.90;;;;;;4988338;28;20201;-65
2023/08/23 01:54:54;;;;;;;4.70;4.18;;;16.30;99.90;;;;;;5024511;28;20203;-65
2023/08/23 01:57:22;;;;;;;7.15;4.10;;;16.30;99.90;;;;;;5021511;28;20707;-65
2023/08/23 01:59:50;;;;;;;5.32;4.65;;;16.30;99.90;;;;;;5027881;28;20198;-65
2023/08/23 02:02:17;;;;;;;4.80;4.30;;;16.20;99.90;;;;;;5010230;28;20232;-65
2023/08/23 02:04:43;;;;;;;7.85;4.22;;;16.10;99.90;;;;;;5012804;28;20740;-65
2023/08/23 02:07:10;;;;;;;8.45;4.35;;;16.20;99.90;;;;;;5020221;28;20226;-65
2023/08/23 02:09:37;;;;;;;8.77;4.13;;;16.30;99.90;;;;;;4979362;28;20213;-65
2023/08/23 02:12:04;;;;;;;5.82;4.85;;;16.30;99.90;;;;;;5026307;28;20197;-65
2023/08/23 02:14:32;;;;;;;5.80;4.40;;;16.20;99.90;;;;;;5022804;28;20207;-65
2023/08/23 02:16:59;;;;;;;13.82;4.75;;;16.20;99.90;;;;;;5016045;28;20221;-65
2023/08/23 02:19:26;;;;;;;6.30;5.18;;;16.30;99.90;;;;;;5012003;28;20210;-65
2023/08/23 02:21:53;;;;;;;7.93;5.32;;;16.20;99.90;;;;;;5022488;28;20205;-65
2023/08/23 02:24:19;;;;;;;7.38;6.03;;;15.20;99.90;;;;;;4983994;28;20214;-65
2023/08/23 02:26:46;;;;;;;10.45;6.32;;;16.30;99.90;;;;;;5019996;28;20221;-65
2023/08/23 02:29:13;;;;;;;8.93;6.40;;;16.30;99.90;;;;;;5032495;28;20209;-65
2023/08/23 02:31:41;;;;;;;11.50;6.88;;;16.30;99.90;;;;;;5020871;28;21360;-65
2023/08/23 02:34:08;;;;;;;7.53;6.47;;;16.40;99.90;;;;;;5026436;28;20205;-65
2023/08/23 02:36:35;;;;;;;20.90;6.63;;;16.40;99.90;;;;;;5016367;28;21475;-65
2023/08/23 02:39:02;;;;;;;9.32;6.07;;;16.30;99.90;;;;;;4994439;28;20210;-65
2023/08/23 02:41:29;;;;;;;6.82;5.00;;;16.30;99.90;;;;;;5010332;28;20247;-65
2023/08/23 02:43:56;;;;;;;8.50;5.32;;;16.20;99.90;;;;;;5026669;28;20202;-65
2023/08/23 02:46:23;;;;;;;10.48;5.45;;;16.20;99.90;;;;;;5017600;28;20229;-65
2023/08/23 02:48:51;;;;;;;5.38;4.88;;;16.30;99.90;;;;;;5021036;28;20208;-65
2023/08/23 02:51:17;;;;;;;5.60;4.00;;;16.40;99.90;;;;;;5012713;28;20212;-65
2023/08/23 02:53:44;;;;;;;5.43;4.18;;;16.30;99.90;;;;;;5021729;28;20213;-65
2023/08/23 02:56:11;;;;;;;4.90;4.40;;;16.30;99.90;;;;;;4991028;28;20212;-66
2023/08/23 02:58:38;;;;;;;8.48;4.75;;;16.40;99.90;;;;;;5015054;28;21045;-65
2023/08/23 03:01:05;;;;;;;10.40;4.00;;;16.40;99.90;;;;;;5019612;28;20226;-65
2023/08/23 03:03:32;;;;;;;6.93;3.95;;;16.50;99.90;;;;;;5016056;28;20888;-65
2023/08/23 03:06:00;;;;;;;5.13;4.57;;;16.40;99.90;;;;;;5022472;28;20204;-65
2023/08/23 03:08:27;;;;;;;5.95;5.03;;;16.40;99.90;;;;;;5011356;28;20232;-65
2023/08/23 03:11:02;;;;;;;11.45;3.75;;;16.50;99.90;;;;;;4988895;28;20205;-65
2023/08/23 03:13:29;;;;;;;3.30;3.03;;;16.40;99.90;;;;;;5013807;28;20194;-65
2023/08/23 03:15:56;;;;;;;5.63;4.22;;;16.40;99.90;;;;;;5025962;28;20204;-65
2023/08/23 03:18:23;;;;;;;5.03;4.32;;;16.30;99.90;;;;;;5020010;28;20209;-65
2023/08/23 03:20:50;;;;;;;4.72;4.22;;;16.00;99.90;;;;;;5024340;28;20201;-64
2023/08/23 03:23:19;;;;;;;4.50;3.95;;;15.70;99.90;;;;;;5007984;28;21629;-65
2023/08/23 03:25:46;;;;;;;5.00;4.50;;;15.60;99.90;;;;;;5020123;28;20408;-65
2023/08/23 03:28:13;;;;;;;5.30;4.38;;;15.70;99.90;;;;;;4990972;28;20225;-65
2023/08/23 03:30:40;;;;;;;5.70;5.10;;;15.70;99.90;;;;;;5014509;28;20216;-65
2023/08/23 03:33:07;;;;;;;5.20;4.70;;;15.50;99.90;;;;;;5025867;28;20201;-65
2023/08/23 03:35:34;;;;;;;4.57;4.18;;;15.60;99.90;;;;;;5018535;28;20210;-65
2023/08/23 03:38:01;;;;;;;6.15;5.15;;;15.60;99.90;;;;;;5013884;28;20212;-65
2023/08/23 03:40:34;;;;;;;5.78;5.00;;;15.80;99.90;;;;;;5020733;28;20208;-65
2023/08/23 03:43:01;;;;;;;5.55;5.05;;;15.60;99.90;;;;;;4989181;28;20206;-65
2023/08/23 03:45:28;;;;;;;5.10;4.65;;;15.60;99.90;;;;;;5011734;28;20210;-65
2023/08/23 03:47:54;;;;;;;5.47;4.07;;;15.60;99.90;;;;;;5025852;28;20236;-65
2023/08/23 03:50:21;;;;;;;4.68;4.28;;;15.50;99.90;;;;;;5025366;28;20208;-65
2023/08/23 03:52:48;;;;;;;4.38;3.97;;;15.60;99.90;;;;;;5017368;28;20972;-65
2023/08/23 03:55:15;;;;;;;9.50;4.50;;;15.70;99.90;;;;;;5016835;28;21723;-65
2023/08/23 03:57:43;;;;;;;6.60;4.68;;;15.60;99.90;;;;;;4978501;28;20305;-65
2023/08/23 04:00:11;;;;;;;6.00;5.10;;;15.80;99.90;;;;;;4998122;28;20205;-65
2023/08/23 04:02:38;;;;;;;7.53;5.50;;;15.70;99.90;;;;;;4980082;28;20742;-65
2023/08/23 04:05:11;;;;;;;6.25;5.65;;;15.90;99.90;;;;;;5010347;28;20244;-65
2023/08/23 04:07:38;;;;;;;8.80;5.82;;;16.00;99.90;;;;;;5007143;28;20280;-65
2023/08/23 04:10:06;;;;;;;6.63;5.28;;;16.00;99.90;;;;;;5010569;28;20201;-65
2023/08/23 04:12:32;;;;;;;11.65;5.88;;;15.90;99.90;;;;;;5014973;28;20205;-65
2023/08/23 04:15:01;;;;;;;10.10;5.75;;;18.40;99.90;;;;;;4982205;28;20660;-65
2023/08/23 04:17:28;;;;;;;6.60;5.00;;;;;;;;;;4994281;28;20220;-65
2023/08/23 04:19:55;;;;;;;6.55;5.43;;;15.80;99.90;;;;;;5022055;28;20201;-65
2023/08/23 04:22:21;;;;;;;28.95;6.18;;;15.90;99.90;;;;;;5010283;28;20205;-65
2023/08/23 04:24:49;;;;;;;10.10;4.95;;;16.50;99.90;;;;;;4993636;28;20671;-65
2023/08/23 04:27:16;;;;;;;11.82;5.50;;;15.60;99.90;;;;;;5017418;28;20224;-65
2023/08/23 04:29:43;;;;;;;9.68;5.50;;;16.20;99.90;;;;;;4977360;28;20446;-65
2023/08/23 04:32:12;;;;;;;18.30;4.95;;;15.90;99.90;;;;;;5012314;28;20663;-65
2023/08/23 04:34:39;;;;;;;7.60;5.63;;;16.00;99.90;;;;;;5016985;28;20216;-65
2023/08/23 04:37:07;;;;;;;6.63;5.40;;;16.00;99.90;;;;;;5009575;28;20205;-64
2023/08/23 04:39:34;;;;;;;7.47;5.47;;;16.10;99.90;;;;;;4996377;28;21208;-65
2023/08/23 04:42:01;;;;;;;9.88;6.20;;;16.20;99.90;;;;;;5023258;28;20222;-66
2023/08/23 04:44:29;;;;;;;20.00;6.43;;;15.80;99.90;;;;;;4985008;28;20208;-65
2023/08/23 04:46:56;;;;;;;16.10;7.45;;;16.20;99.90;;;;;;4991254;28;20236;-65
2023/08/23 04:49:24;;;;;;;9.95;6.28;;;16.30;99.90;;;;;;5009361;28;20226;-65
2023/08/23 04:51:51;;;;;;;13.93;6.38;;;16.30;99.90;;;;;;5013508;28;20316;-65
2023/08/23 04:54:17;;;;;;;17.85;6.43;;;16.40;99.90;;;;;;5013457;28;20209;-65
2023/08/23 04:56:44;;;;;;;12.52;6.22;;;16.30;99.90;;;;;;5001405;28;20330;-64
2023/08/23 04:59:11;;;;;;;17.15;6.15;;;16.40;99.90;;;;;;5019187;28;20582;-65
2023/08/23 05:01:38;;;;;;;11.35;5.47;;;16.60;99.90;;;;;;4980779;28;20237;-65
2023/08/23 05:04:07;;;;;;;9.55;6.30;;;16.40;99.90;;;;;;5011837;28;20235;-65
2023/08/23 05:06:35;;;;;;;14.45;6.82;;;16.50;99.90;;;;;;5008034;28;21036;-64
2023/08/23 05:09:04;;;;;;;9.40;6.65;;;16.50;99.90;;;;;;5003384;28;20334;-65
2023/08/23 05:11:31;;;;;;;11.00;7.00;;;16.60;99.90;;;;;;5001893;28;20225;-65
2023/08/23 05:13:58;;;;;;;9.82;6.30;;;16.60;99.90;;;;;;5014574;28;20606;-64
2023/08/23 05:16:24;;;;;;;11.45;6.55;;;16.70;99.90;;;;;;4962128;28;20225;-65
2023/08/23 05:18:51;;;;;;;16.75;6.45;;;16.70;99.90;;;;;;5013256;28;20224;-65
2023/08/23 05:21:18;;;;;;;44.22;7.18;;;16.80;99.90;;;;;;5006443;28;20233;-65
2023/08/23 05:23:46;;;;;;;19.48;7.00;;;16.70;99.90;;;;;;5006343;28;20226;-65
2023/08/23 05:26:13;;;;;;;17.08;6.82;;;16.70;99.90;;;;;;5001378;28;20245;-65
2023/08/23 05:28:40;;;;;;;24.48;7.32;;;16.70;99.90;;;;;;5020406;28;20228;-65
2023/08/23 05:31:06;;;;;;;10.43;7.05;;;16.80;99.90;;;;;;4986491;28;20221;-65
2023/08/23 05:33:33;;;;;;;11.23;7.78;;;16.80;99.90;;;;;;5020898;28;20221;-65
2023/08/23 05:36:00;;;;;;;9.82;7.68;;;16.80;99.90;;;;;;5019024;28;20421;-65
2023/08/23 05:38:28;;;;;;;10.05;6.90;;;16.90;99.90;;;;;;5019861;28;20201;-66
2023/08/23 05:40:56;;;;;;;10.75;7.05;;;17.10;99.90;;;;;;5019846;28;20197;-66
2023/08/23 05:43:23;;;;;;;10.40;6.85;;;16.90;99.90;;;;;;5020445;28;20193;-66
2023/08/23 05:45:50;;;;;;;7.03;6.15;;;16.90;99.90;;;;;;5019517;28;21271;-65
2023/08/23 05:48:17;;;;;;;25.45;7.95;;;17.00;99.90;;;;;;4984131;28;20243;-65
2023/08/23 05:50:44;;;;;;;9.18;8.00;;;16.80;99.90;;;;;;5022386;28;20205;-65
2023/08/23 05:53:18;;;;;;;8.77;7.68;;;16.80;99.90;;;;;;5024111;28;20201;-66
2023/08/23 05:55:47;;;;;;;8.60;7.70;;;16.80;99.90;;;;;;5022186;28;20340;-65
2023/08/23 05:58:15;;;;;;;16.10;8.13;;;16.80;99.90;;;;;;4993581;28;20233;-64
2023/08/23 06:00:42;;;;;;;9.70;8.63;;;16.90;99.90;;;;;;4995530;28;20947;-65
2023/08/23 06:03:09;;;;;;;9.75;8.68;;;16.90;99.90;;;;;;4974846;28;22352;-65
2023/08/23 06:05:36;;;;;;;16.73;9.90;;;16.90;99.90;;;;;;5014839;28;20233;-64
2023/08/23 06:08:03;;;;;;;18.40;10.82;;;17.10;99.90;;;;;;5017246;28;20240;-65
2023/08/23 06:10:30;;;;;;;13.68;10.05;;;17.00;99.90;;;;;;5026527;28;20340;-64
2023/08/23 06:12:57;;;;;;;15.68;11.32;;;16.60;99.90;;;;;;5012668;28;20225;-64
2023/08/23 06:15:25;;;;;;;15.45;11.93;;;17.10;99.90;;;;;;5010315;28;20225;-65
2023/08/23 06:17:53;;;;;;;16.20;11.77;;;17.10;99.90;;;;;;4992363;28;20217;-65
2023/08/23 06:20:20;;;;;;;17.38;11.90;;;17.20;99.90;;;;;;4983222;28;20217;-65
2023/08/23 06:22:47;;;;;;;14.70;11.07;;;17.20;99.90;;;;;;5009043;28;20337;-65
2023/08/23 06:25:13;;;;;;;14.45;10.60;;;17.30;99.90;;;;;;5012485;28;20208;-65
2023/08/23 06:27:40;;;;;;;12.43;10.10;;;17.30;99.90;;;;;;5020354;28;20233;-65
2023/08/23 06:30:08;;;;;;;13.20;10.57;;;17.30;99.90;;;;;;5030633;28;20670;-65
2023/08/23 06:32:36;;;;;;;17.40;10.98;;;17.40;99.90;;;;;;5029059;28;20516;-65
2023/08/23 06:35:03;;;;;;;20.02;11.38;;;17.40;99.90;;;;;;4983478;28;20498;-65
2023/08/23 06:37:30;;;;;;;15.82;10.93;;;17.40;99.90;;;;;;5025119;28;20389;-65
2023/08/23 06:39:57;;;;;;;14.68;11.57;;;17.40;99.90;;;;;;5031298;28;20202;-65
2023/08/23 06:42:24;;;;;;;15.65;11.45;;;17.30;99.90;;;;;;5029209;28;20409;-65
2023/08/23 06:44:50;;;;;;;13.82;10.70;;;17.50;99.90;;;;;;5030785;28;20240;-65
2023/08/23 06:47:17;;;;;;;15.85;10.75;;;17.70;99.90;;;;;;5030608;28;20206;-64
2023/08/23 06:49:46;;;;;;;13.43;10.10;;;17.60;99.90;;;;;;5014456;28;20644;-64
2023/08/23 06:52:12;;;;;;;12.77;10.23;;;17.80;99.90;;;;;;4994057;28;20236;-65
2023/08/23 06:54:39;;;;;;;11.80;10.07;;;17.90;99.90;;;;;;5028823;28;20679;-65
2023/08/23 06:57:06;;;;;;;12.23;9.02;;;17.90;99.90;;;;;;5029484;28;20332;-65
2023/08/23 06:59:33;;;;;;;10.40;8.45;;;18.00;99.90;;;;;;5026338;28;20540;-65
2023/08/23 07:01:59;;;;;;;17.25;8.68;;;17.90;99.90;;;;;;5032447;28;20190;-65
2023/08/23 07:04:26;;;;;;;12.68;8.75;;;17.90;99.90;;;;;;5017941;28;20230;-65
2023/08/23 07:06:54;;;;;;;15.98;8.52;;;17.90;99.90;;;;;;4994754;28;20201;-64
2023/08/23 07:09:21;;;;;;;11.18;8.15;;;18.00;99.90;;;;;;5028775;28;20228;-65
2023/08/23 07:11:48;;;;;;;11.25;8.02;;;18.00;99.90;;;;;;5030215;28;20690;-65
2023/08/23 07:14:15;;;;;;;9.82;8.05;;;18.20;99.90;;;;;;5025622;28;20194;-65
2023/08/23 07:16:41;;;;;;;12.98;8.30;;;18.10;99.90;;;;;;5026962;28;20383;-65
2023/08/23 07:19:09;;;;;;;11.75;8.35;;;18.20;99.90;;;;;;5031141;28;20234;-65
2023/08/23 07:21:35;;;;;;;8.95;7.13;;;18.20;99.90;;;;;;4980083;28;21717;-65
2023/08/23 07:24:04;;;;;;;11.45;8.52;;;18.20;99.90;;;;;;5030865;28;20208;-65
2023/08/23 07:26:33;;;;;;;12.65;7.93;;;18.30;99.90;;;;;;5024712;28;20669;-65
2023/08/23 07:29:00;;;;;;;11.00;8.18;;;18.30;99.90;;;;;;5027793;28;20228;-65
2023/08/23 07:31:27;;;;;;;10.65;8.30;;;18.20;99.90;;;;;;5023484;28;20958;-65
2023/08/23 07:33:54;;;;;;;9.73;7.68;;;18.10;99.90;;;;;;5031788;28;20202;-65
2023/08/23 07:36:21;;;;;;;12.27;8.43;;;18.00;99.90;;;;;;5002289;28;20254;-65
2023/08/23 07:38:48;;;;;;;10.80;7.68;;;18.00;99.90;;;;;;5020983;28;20659;-65
2023/08/23 07:41:16;;;;;;;10.25;8.25;;;18.20;99.90;;;;;;5028762;28;20201;-65
2023/08/23 07:43:43;;;;;;;11.00;7.93;;;18.20;99.90;;;;;;5028313;28;20716;-65
2023/08/23 07:46:09;;;;;;;11.65;7.78;;;18.30;99.90;;;;;;5028731;28;20198;-65
2023/08/23 07:48:36;;;;;;;12.32;7.20;;;18.30;99.90;;;;;;5025713;28;21152;-65
2023/08/23 07:51:05;;;;;;;8.75;7.32;;;18.50;99.90;;;;;;5018599;28;20218;-65
2023/08/23 07:53:32;;;;;;;10.60;7.60;;;18.50;99.90;;;;;;4990188;28;20583;-65
2023/08/23 07:55:59;;;;;;;10.13;8.23;;;18.60;99.90;;;;;;5025657;28;20233;-65
2023/08/23 07:58:27;;;;;;;12.35;8.35;;;18.80;99.90;;;;;;5021599;28;20217;-65
2023/08/23 08:00:54;;;;;;;12.70;8.88;;;18.80;99.90;;;;;;5021937;28;21070;-65
2023/08/23 08:03:21;;;;;;;15.95;11.30;;;18.80;99.90;;;;;;5019943;28;20673;-65
2023/08/23 08:05:48;;;;;;;16.40;10.88;;;18.90;99.90;;;;;;5024301;28;20229;-65
2023/08/23 08:08:15;;;;;;;12.48;9.45;;;18.90;99.90;;;;;;4990110;28;20222;-65
2023/08/23 08:10:41;;;;;;;13.40;8.98;;;19.00;99.90;;;;;;5019087;28;20303;-65
2023/08/23 08:13:08;;;;;;;13.80;9.45;;;18.90;99.90;;;;;;5012400;28;20225;-65
2023/08/23 08:15:36;;;;;;;14.05;10.77;;;19.00;99.90;;;;;;5026622;28;20197;-65
2023/08/23 08:18:03;;;;;;;15.30;10.65;;;18.90;99.90;;;;;;5026024;28;20726;-65
2023/08/23 08:20:30;;;;;;;14.15;10.27;;;19.00;99.90;;;;;;5023127;28;20198;-65
2023/08/23 08:22:57;;;;;;;11.27;8.70;;;19.00;99.90;;;;;;5024704;28;20197;-65
2023/08/23 08:25:24;;;;;;;10.75;8.23;;;19.20;99.90;;;;;;4996968;28;20288;-65
2023/08/23 08:27:51;;;;;;;10.38;7.85;;;19.20;99.90;;;;;;5029111;28;20204;-65
2023/08/23 08:30:18;;;;;;;11.38;9.60;;;19.20;99.90;;;;;;5024003;28;20557;-65
2023/08/23 08:32:47;;;;;;;13.77;8.20;;;19.10;99.90;;;;;;5028163;28;20545;-65
2023/08/23 08:35:14;;;;;;;9.40;8.13;;;19.20;99.90;;;;;;5024755;28;20432;-65
2023/08/23 08:37:40;;;;;;;12.02;7.72;;;19.30;99.90;;;;;;5028705;28;20198;-65
2023/08/23 08:40:08;;;;;;;8.63;7.30;;;19.30;99.90;;;;;;4991881;28;20209;-65
2023/08/23 08:42:35;;;;;;;8.18;7.13;;;19.40;99.90;;;;;;5028831;28;20318;-65
2023/08/23 08:45:02;;;;;;;8.73;7.03;;;19.30;99.90;;;;;;5026198;28;20198;-65
2023/08/23 08:47:29;;;;;;;12.35;7.30;;;19.50;99.90;;;;;;5025976;28;20201;-65
2023/08/23 08:49:58;;;;;;;7.45;5.90;;;19.40;99.90;;;;;;5027694;28;20221;-65
2023/08/23 08:52:29;;;;;;;7.32;6.20;;;19.40;99.90;;;;;;5026356;28;20208;-65
2023/08/23 08:54:58;;;;;;;8.77;6.80;;;19.40;99.90;;;;;;4989864;28;20263;-65
2023/08/23 08:57:27;;;;;;;11.63;6.20;;;19.50;99.90;;;;;;5022338;28;20194;-65
2023/08/23 08:59:56;;;;;;;9.80;6.30;;;19.50;99.90;;;;;;5029957;28;20329;-65
2023/08/23 09:02:25;;;;;;;8.90;5.82;;;19.50;99.90;;;;;;5009775;28;20474;-65
2023/08/23 09:04:52;;;;;;;8.02;5.47;;;19.60;99.90;;;;;;5026559;28;20236;-65
2023/08/23 09:07:20;;;;;;;8.48;6.00;;;19.60;99.90;;;;;;5022897;28;20618;-65
2023/08/23 09:09:47;;;;;;;5.35;4.78;;;19.60;99.90;;;;;;5029641;28;20236;-65
2023/08/23 09:12:14;;;;;;;5.32;4.65;;;19.70;99.90;;;;;;4990226;28;20229;-65
2023/08/23 09:14:40;;;;;;;5.63;4.53;;;19.70;99.90;;;;;;5024935;28;20224;-65
2023/08/23 09:17:08;;;;;;;7.32;4.82;;;19.70;99.90;;;;;;5012795;28;20229;-65
2023/08/23 09:19:36;;;;;;;8.25;4.50;;;19.70;99.90;;;;;;5027076;28;20217;-65
2023/08/23 09:22:05;;;;;;;4.72;4.07;;;19.70;99.90;;;;;;5029731;28;21054;-65
2023/08/23 09:24:34;;;;;;;6.20;3.90;;;19.90;99.90;;;;;;5024082;28;20240;-65
2023/08/23 09:27:01;;;;;;;5.55;4.03;;;19.90;99.90;;;;;;4990432;28;20209;-65
2023/08/23 09:29:28;;;;;;;6.00;3.55;;;19.90;99.90;;;;;;5024586;28;20225;-65
2023/08/23 09:31:58;;;;;;;4.05;2.92;;;19.90;99.90;;;;;;5014499;28;23262;-65
2023/08/23 09:34:25;;;;;;;5.20;3.20;;;20.00;99.90;;;;;;5024726;28;20213;-65
2023/08/23 09:36:52;;;;;;;3.70;2.63;;;20.10;99.90;;;;;;5026190;28;20228;-65
2023/08/23 09:39:19;;;;;;;8.43;3.05;;;20.10;99.90;;;;;;5022838;28;20446;-65
2023/08/23 09:41:47;;;;;;;3.63;3.20;;;20.30;99.90;;;;;;5026103;28;20227;-65
2023/08/23 09:44:15;;;;;;;9.45;3.20;;;20.30;99.90;;;;;;4989030;28;20233;-65
2023/08/23 09:46:45;;;;;;;4.78;3.28;;;20.40;99.90;;;;;;5012662;28;21035;-65
2023/08/23 09:49:14;;;;;;;3.10;2.80;;;20.40;99.90;;;;;;5021781;28;20222;-66
2023/08/23 09:51:41;;;;;;;5.03;2.40;;;20.50;99.90;;;;;;5028973;28;20193;-66
2023/08/23 09:54:13;;;;;;;3.40;2.50;;;20.50;99.90;;;;;;5021065;28;20197;-65
2023/08/23 09:56:43;;;;;;;4.50;2.58;;;20.60;99.90;;;;;;5018798;28;20221;-65
2023/08/23 09:59:12;;;;;;;3.60;2.60;;;20.70;99.90;;;;;;4990881;28;20603;-65
2023/08/23 10:01:39;;;;;;;5.30;2.03;;;20.90;99.90;;;;;;5017271;28;20805;-65
2023/08/23 10:04:08;;;;;;;8.38;2.92;;;20.90;99.90;;;;;;5023625;28;20770;-65
2023/08/23 10:06:36;;;;;;;3.92;2.92;;;21.00;99.90;;;;;;5024482;28;20217;-65
2023/08/23 10:09:04;;;;;;;8.32;5.32;;;21.10;99.90;;;;;;5025915;28;20221;-65
2023/08/23 10:11:32;;;;;;;5.18;2.60;;;21.10;99.90;;;;;;5025145;28;20698;-65
2023/08/23 10:14:01;;;;;;;4.80;1.58;;;21.30;99.90;;;;;;4990012;28;20205;-65
2023/08/23 10:16:30;;;;;;;1.30;1.20;;;21.20;99.90;;;;;;5022806;28;20201;-65
2023/08/23 10:18:58;;;;;;;2.63;1.65;;;21.20;99.90;;;;;;5024814;28;20198;-65
2023/08/23 10:21:26;;;;;;;1.77;1.40;;;21.30;99.90;;;;;;5014667;28;20797;-65
2023/08/23 10:23:53;;;;;;;2.47;1.50;;;21.40;99.90;;;;;;5025849;28;20225;-65
2023/08/23 10:26:21;;;;;;;4.57;1.58;;;21.40;99.90;;;;;;5012135;28;20221;-66
2023/08/23 10:28:49;;;;;;;2.00;1.50;;;21.40;99.90;;;;;;4991451;28;20248;-65
2023/08/23 10:31:22;;;;;;;2.10;1.65;;;21.40;99.90;;;;;;5010118;28;21072;-65
2023/08/23 10:33:56;;;;;;;2.17;1.55;;;21.40;99.90;;;;;;5026567;28;20221;-65
2023/08/23 10:36:25;;;;;;;2.22;1.63;;;21.50;99.90;;;;;;5020954;28;20261;-65
2023/08/23 10:38:53;;;;;;;2.40;1.70;;;21.50;99.90;;;;;;5026490;28;20243;-65
2023/08/23 10:41:20;;;;;;;2.67;1.60;;;21.50;99.90;;;;;;5022560;28;20414;-65
2023/08/23 10:43:47;;;;;;;3.00;1.30;;;21.60;99.90;;;;;;5026840;28;20209;-65
2023/08/23 10:46:18;;;;;;;4.35;1.50;;;21.60;99.90;;;;;;4988705;28;20228;-65
2023/08/23 10:48:45;;;;;;;3.38;1.27;;;21.70;99.90;;;;;;5024731;28;20258;-65
2023/08/23 10:51:14;;;;;;;4.88;1.77;;;21.70;99.90;;;;;;5027695;28;20202;-65
2023/08/23 10:53:42;;;;;;;1.30;1.20;;;21.80;99.90;;;;;;5028398;28;20205;-65
2023/08/23 10:56:10;;;;;;;1.30;1.20;;;21.80;99.90;;;;;;5027634;28;20194;-65
2023/08/23 10:58:37;;;;;;;3.80;1.50;;;21.90;99.90;;;;;;5030259;28;20197;-65
2023/08/23 11:01:05;;;;;;;1.40;1.10;;;22.00;99.90;;;;;;4984857;28;20216;-65
2023/08/23 11:03:33;;;;;;;2.35;1.05;;;21.80;99.90;;;;;;5025515;28;20493;-65
2023/08/23 11:06:00;;;;;;;3.53;1.10;;;22.10;99.90;;;;;;5027373;28;20190;-66
2023/08/23 11:08:28;;;;;;;3.28;1.10;;;22.20;99.90;;;;;;5028247;28;20421;-65
2023/08/23 11:10:55;;;;;;;2.00;1.33;;;22.10;99.90;;;;;;5026591;28;20231;-65
2023/08/23 11:13:22;;;;;;;1.02;1.00;;;;;;;;;;5015836;28;20388;-65
2023/08/23 11:15:49;;;;;;;1.95;1.23;;;22.20;99.90;;;;;;4991124;28;20226;-65
2023/08/23 11:18:16;;;;;;;2.83;1.17;;;22.20;99.90;;;;;;5011768;28;20221;-65
2023/08/23 11:20:43;;;;;;;5.35;1.30;;;22.20;99.90;;;;;;5026049;28;21107;-65
2023/08/23 11:23:10;;;;;;;3.05;1.25;;;22.20;99.90;;;;;;5027807;28;20198;-65
2023/08/23 11:25:38;;;;;;;2.40;1.10;;;22.20;99.90;;;;;;5029602;28;20221;-66
2023/08/23 11:28:06;;;;;;;5.88;1.40;;;22.30;99.90;;;;;;5026776;28;20208;-66
2023/08/23 11:30:33;;;;;;;5.15;1.20;;;22.00;99.90;;;;;;4990124;28;20587;-66
2023/08/23 11:33:00;;;;;;;2.20;1.30;;;22.50;99.90;;;;;;5029950;28;20201;-65
2023/08/23 11:35:28;;;;;;;4.63;1.17;;;22.50;99.90;;;;;;5025493;28;20826;-66
2023/08/23 11:37:55;;;;;;;5.57;1.52;;;22.50;99.90;;;;;;5029220;28;20363;-65
2023/08/23 11:40:24;;;;;;;1.30;1.20;;;22.50;99.90;;;;;;5026551;28;20210;-66
2023/08/23 11:42:56;;;;;;;1.38;1.10;;;22.50;99.90;;;;;;5030960;28;20255;-66
2023/08/23 11:45:23;;;;;;;2.38;1.23;;;22.60;99.90;;;;;;5024664;28;20214;-66
2023/08/23 11:47:53;;;;;;;1.40;1.10;;;22.60;99.90;;;;;;4994257;28;20206;-65
2023/08/23 11:50:20;;;;;;;2.47;1.17;;;22.70;99.90;;;;;;5026352;28;20338;-65
2023/08/23 11:52:48;;;;;;;1.10;1.00;;;22.70;99.90;;;;;;5028448;28;20585;-66
2023/08/23 11:55:22;;;;;;;3.95;1.42;;;22.70;99.90;;;;;;5025402;28;20208;-65
2023/08/23 11:57:54;;;;;;;2.58;1.30;;;22.80;99.90;;;;;;5029897;28;20229;-65
2023/08/23 12:00:21;;;;;;;1.35;1.15;;;23.20;99.90;;;;;;5005092;28;20202;-65
2023/08/23 12:02:48;;;;;;;1.33;1.23;;;22.90;99.90;;;;;;4990902;28;20225;-65
2023/08/23 12:05:16;;;;;;;4.10;1.38;;;22.80;99.90;;;;;;5005048;28;20240;-65
2023/08/23 12:07:43;;;;;;;2.15;1.58;;;22.90;99.90;;;;;;5017685;28;20328;-65
2023/08/23 12:10:11;;;;;;;3.05;1.20;;;22.90;99.90;;;;;;5016607;28;20225;-65
2023/08/23 12:12:38;;;;;;;1.08;1.02;;;22.90;99.90;;;;;;5022407;28;20204;-65
2023/08/23 12:15:08;;;;;;;6.72;3.65;;;23.10;99.90;;;;;;5008072;28;20208;-65
2023/08/23 12:17:35;;;;;;;2.35;1.83;;;22.80;99.90;;;;;;4972014;28;20225;-66
2023/08/23 12:20:04;;;;;;;2.60;1.58;;;22.70;99.90;;;;;;5023130;28;20241;-65
2023/08/23 12:22:31;;;;;;;2.70;1.67;;;22.70;99.90;;;;;;5008324;28;20801;-65
2023/08/23 12:24:58;;;;;;;4.72;1.38;;;22.50;99.90;;;;;;5022180;28;20226;-65
2023/08/23 12:27:25;;;;;;;1.77;1.40;;;22.60;99.90;;;;;;5012247;28;20228;-65
2023/08/23 12:29:51;;;;;;;2.80;1.73;;;22.60;99.90;;;;;;5017391;28;20228;-66
2023/08/23 12:32:20;;;;;;;1.45;0.98;;;22.60;99.90;;;;;;4992742;28;20220;-66
2023/08/23 12:34:47;;;;;;;3.13;1.48;;;22.70;99.90;;;;;;5022886;28;20260;-65
2023/08/23 12:37:14;;;;;;;1.30;1.20;;;22.80;99.90;;;;;;5019986;28;20228;-65
2023/08/23 12:39:41;;;;;;;3.40;1.40;;;23.00;99.90;;;;;;5006432;28;20333;-65
2023/08/23 12:42:08;;;;;;;3.22;1.38;;;23.00;99.90;;;;;;5011130;28;20256;-66
2023/08/23 12:44:35;;;;;;;3.13;1.40;;;23.10;99.90;;;;;;5019838;28;20198;-66